createdAt,value
2022-08-19T03:47:42.789Z,4.37
2022-08-19T03:50:17.660Z,6.03
2022-08-19T03:52:52.728Z,6.63
2022-08-19T03:55:26.315Z,5.80
2022-08-19T03:58:00.152Z,5.00
2022-08-19T04:00:34.373Z,4.77
2022-08-19T04:03:11.541Z,5.10
2022-08-19T04:05:45.222Z,5.03
2022-08-19T04:08:20.019Z,4.47
2022-08-19T04:10:54.432Z,5.20
2022-08-19T04:13:28.559Z,5.17
2022-08-19T04:16:03.288Z,4.80
2022-08-19T04:18:39.922Z,4.73
2022-08-19T04:21:21.767Z,6.20
2022-08-19T04:23:57.006Z,4.70
2022-08-19T04:26:35.307Z,6.20
2022-08-19T04:29:13.001Z,6.03
2022-08-19T04:31:47.270Z,5.30
2022-08-19T04:34:25.397Z,6.37
2022-08-19T04:37:01.385Z,5.20
2022-08-19T04:39:49.103Z,4.70
2022-08-19T04:42:41.067Z,4.93
2022-08-19T04:45:17.409Z,5.30
2022-08-19T04:47:58.995Z,5.30
2022-08-19T04:50:47.309Z,5.20
2022-08-19T04:53:20.923Z,5.70
2022-08-19T04:55:54.480Z,5.10
2022-08-19T04:58:30.193Z,6.27
2022-08-19T05:01:04.004Z,7.83
2022-08-19T05:03:37.498Z,7.47
2022-08-19T05:06:18.426Z,5.37
2022-08-19T05:08:52.742Z,5.73
2022-08-19T05:11:36.304Z,6.57
2022-08-19T05:17:26.173Z,7.50
2022-08-19T05:20:15.363Z,5.70
2022-08-19T05:22:51.937Z,6.53
2022-08-19T05:25:26.568Z,6.07
2022-08-19T05:28:00.306Z,6.90
2022-08-19T05:30:46.873Z,6.40
2022-08-19T05:33:22.349Z,7.87
2022-08-19T05:35:57.049Z,7.37
2022-08-19T05:38:32.140Z,7.30
2022-08-19T05:41:10.630Z,8.10
2022-08-19T05:43:46.864Z,7.83
2022-08-19T05:46:27.901Z,7.50
2022-08-19T05:49:01.981Z,7.70
2022-08-19T05:51:38.263Z,8.37
2022-08-19T05:54:14.913Z,9.57
2022-08-19T05:56:49.515Z,8.17
2022-08-19T05:59:25.040Z,8.37
2022-08-19T06:01:58.628Z,9.20
2022-08-19T06:04:32.225Z,8.23
2022-08-19T06:07:12.715Z,7.90
2022-08-19T06:09:54.417Z,12.87
2022-08-19T06:12:36.605Z,7.23
2022-08-19T06:15:14.398Z,7.70
2022-08-19T06:17:47.983Z,8.63
2022-08-19T06:20:39.792Z,7.87
2022-08-19T06:23:16.245Z,8.20
2022-08-19T06:25:52.148Z,9.53
2022-08-19T06:28:25.913Z,10.57
2022-08-19T06:30:59.813Z,7.40
2022-08-19T06:33:33.221Z,9.67
2022-08-19T06:36:07.458Z,8.50
2022-08-19T06:38:40.936Z,8.97
2022-08-19T06:41:16.438Z,8.70
2022-08-19T06:43:49.992Z,11.00
2022-08-19T06:46:28.698Z,12.03
2022-08-19T06:49:02.995Z,10.80
2022-08-19T06:51:42.519Z,11.18
2022-08-19T06:54:20.383Z,11.27
2022-08-19T06:56:55.863Z,10.33
2022-08-19T06:59:29.380Z,10.77
2022-08-19T07:02:07.652Z,9.77
2022-08-19T07:04:42.493Z,10.03
2022-08-19T07:07:20.072Z,10.68
2022-08-19T07:09:59.197Z,11.83
2022-08-19T07:12:38.231Z,9.50
2022-08-19T07:15:13.772Z,9.73
2022-08-19T07:17:52.586Z,11.67
2022-08-19T07:20:28.641Z,11.13
2022-08-19T07:23:02.977Z,10.55
2022-08-19T07:25:41.403Z,11.10
2022-08-19T07:28:24.478Z,11.67
2022-08-19T07:31:04.693Z,10.55
2022-08-19T07:33:40.036Z,11.68
2022-08-19T07:36:17.888Z,10.05
2022-08-19T07:38:54.623Z,10.50
2022-08-19T07:41:32.680Z,10.80
2022-08-19T07:44:10.267Z,11.35
2022-08-19T07:46:48.299Z,10.00
2022-08-19T07:49:25.713Z,11.48
2022-08-19T07:52:03.772Z,12.02
2022-08-19T07:54:41.664Z,10.70
2022-08-19T07:57:15.644Z,10.70
2022-08-19T07:59:50.631Z,12.70
2022-08-19T08:02:24.426Z,12.40
2022-08-19T08:05:18.327Z,11.25
2022-08-19T08:08:09.322Z,11.77
2022-08-19T08:10:43.308Z,11.63
2022-08-19T08:13:25.401Z,12.32
2022-08-19T08:16:01.399Z,13.30
2022-08-19T08:18:42.298Z,13.20
2022-08-19T08:21:16.018Z,12.25
2022-08-19T08:23:51.077Z,13.40
2022-08-19T08:26:26.856Z,14.32
2022-08-19T08:29:02.389Z,15.80
2022-08-19T08:31:47.953Z,13.75
2022-08-19T08:34:22.865Z,14.52
2022-08-19T08:36:56.925Z,14.82
2022-08-19T08:39:30.489Z,15.25
2022-08-19T08:42:18.541Z,14.98
2022-08-19T08:45:00.373Z,15.38
2022-08-19T08:47:42.136Z,17.25
2022-08-19T08:50:21.723Z,16.08
2022-08-19T08:52:59.003Z,16.88
2022-08-19T08:55:36.929Z,18.27
2022-08-19T08:58:18.713Z,17.52
2022-08-19T09:00:52.370Z,17.35
2022-08-19T09:03:31.482Z,16.70
2022-08-19T09:06:11.950Z,16.63
2022-08-19T09:09:03.871Z,17.40
2022-08-19T09:12:06.061Z,15.65
2022-08-19T09:14:52.015Z,14.27
2022-08-19T09:17:31.968Z,16.25
2022-08-19T09:20:18.057Z,16.70
2022-08-19T09:22:52.429Z,15.32
2022-08-19T09:25:29.394Z,14.85
2022-08-19T09:28:05.939Z,19.83
2022-08-19T09:30:56.204Z,19.95
2022-08-19T09:33:30.228Z,16.75
2022-08-19T09:36:10.005Z,16.88
2022-08-19T09:38:43.909Z,15.63
2022-08-19T09:41:20.901Z,15.88
2022-08-19T09:43:58.309Z,14.88
2022-08-19T09:46:32.765Z,13.18
2022-08-19T09:49:07.167Z,13.95
2022-08-19T09:51:42.064Z,14.13
2022-08-19T09:54:17.941Z,13.30
2022-08-19T09:57:01.255Z,12.63
2022-08-19T09:59:38.662Z,11.07
2022-08-19T10:02:12.985Z,11.73
2022-08-19T10:05:04.069Z,10.75
2022-08-19T10:07:44.120Z,9.18
2022-08-19T10:10:18.333Z,9.68
2022-08-19T10:12:55.623Z,8.77
2022-08-19T10:15:32.998Z,8.23
2022-08-19T10:18:24.510Z,7.68
2022-08-19T10:21:11.852Z,8.05
2022-08-19T10:23:50.686Z,8.63
2022-08-19T10:26:29.616Z,9.90
2022-08-19T10:29:05.778Z,9.30
2022-08-19T10:32:00.737Z,9.90
2022-08-19T10:34:34.349Z,8.35
2022-08-19T10:37:10.843Z,9.40
2022-08-19T10:39:49.773Z,11.15
2022-08-19T10:42:23.543Z,9.10
2022-08-19T10:44:57.408Z,8.20
2022-08-19T10:47:32.195Z,9.07
2022-08-19T10:50:28.768Z,8.63
2022-08-19T10:53:09.788Z,9.68
2022-08-19T10:56:11.244Z,9.82
2022-08-19T10:58:46.051Z,9.38
2022-08-19T11:01:19.651Z,10.00
2022-08-19T11:03:53.495Z,10.40
2022-08-19T11:06:27.171Z,10.30
2022-08-19T11:09:04.169Z,10.18
2022-08-19T11:11:41.795Z,9.23
2022-08-19T11:14:21.405Z,11.43
2022-08-19T11:16:56.968Z,10.75
2022-08-19T11:19:31.019Z,8.27
2022-08-19T11:22:04.920Z,8.20
2022-08-19T11:24:39.063Z,9.25
2022-08-19T11:27:15.311Z,8.18
2022-08-19T11:29:49.435Z,9.68
2022-08-19T11:32:23.015Z,9.10
2022-08-19T11:34:56.544Z,10.13
2022-08-19T11:37:30.078Z,10.20
2022-08-19T11:40:03.708Z,10.18
2022-08-19T11:42:52.468Z,10.55
2022-08-19T11:45:26.653Z,9.40
2022-08-19T11:48:00.261Z,9.32
2022-08-19T11:50:33.736Z,7.63
2022-08-19T11:53:07.235Z,7.75
2022-08-19T11:55:45.714Z,8.23
2022-08-19T11:58:26.906Z,8.02
2022-08-19T12:01:00.985Z,6.75
2022-08-19T12:03:34.805Z,6.65
2022-08-19T12:06:11.084Z,5.97
2022-08-19T12:08:46.313Z,7.38
2022-08-19T12:11:19.994Z,7.07
2022-08-19T12:13:56.008Z,6.35
2022-08-19T12:16:32.919Z,6.32
2022-08-19T12:19:07.687Z,6.65
2022-08-19T12:21:41.295Z,7.00
2022-08-19T12:24:14.680Z,6.95
2022-08-19T12:26:53.247Z,5.72
2022-08-19T12:29:29.527Z,5.93
2022-08-19T12:32:03.934Z,6.28
2022-08-19T12:34:38.189Z,6.28
2022-08-19T12:37:13.157Z,6.85
2022-08-19T12:39:50.332Z,5.70
2022-08-19T12:42:24.143Z,5.15
2022-08-19T12:44:59.556Z,6.28
2022-08-19T12:47:33.157Z,4.35
2022-08-19T12:50:09.547Z,6.65
2022-08-19T12:52:43.586Z,4.45
2022-08-19T12:55:19.569Z,4.43
2022-08-19T12:57:53.702Z,4.88
2022-08-19T13:00:33.766Z,4.60
2022-08-19T13:03:07.625Z,6.30
2022-08-19T13:05:41.890Z,4.63
2022-08-19T13:08:15.327Z,5.10
2022-08-19T13:10:48.761Z,4.32
2022-08-19T13:13:22.682Z,4.20
2022-08-19T13:16:04.361Z,4.40
2022-08-19T13:18:38.405Z,4.05
2022-08-19T13:21:16.323Z,3.90
2022-08-19T13:23:50.134Z,5.00
2022-08-19T13:26:23.867Z,5.13
2022-08-19T13:29:15.014Z,5.20
2022-08-19T13:32:07.372Z,4.10
2022-08-19T13:34:40.961Z,4.45
2022-08-19T13:37:14.904Z,3.58
2022-08-19T13:39:48.698Z,3.95
2022-08-19T13:42:26.723Z,4.30
2022-08-19T13:45:00.602Z,3.50
2022-08-19T13:47:37.148Z,4.60
2022-08-19T13:50:12.781Z,3.78
2022-08-19T13:52:46.535Z,4.40
2022-08-19T13:55:22.116Z,3.10
2022-08-19T13:58:02.801Z,4.30
2022-08-19T14:00:42.482Z,5.05
2022-08-19T14:03:18.745Z,3.88
2022-08-19T14:05:56.745Z,3.70
2022-08-19T14:08:33.265Z,4.07
2022-08-19T14:11:07.065Z,3.67
2022-08-19T14:13:40.489Z,4.50
2022-08-19T14:16:16.425Z,3.78
2022-08-19T14:18:51.246Z,3.70
2022-08-19T14:21:26.783Z,3.17
2022-08-19T14:24:00.233Z,4.53
2022-08-19T14:26:33.883Z,4.53
2022-08-19T14:29:08.649Z,4.45
2022-08-19T14:31:44.187Z,3.33
2022-08-19T14:34:19.526Z,4.10
2022-08-19T14:36:53.248Z,4.03
2022-08-19T14:39:27.315Z,5.28
2022-08-19T14:42:01.116Z,4.50
2022-08-19T14:44:35.468Z,4.05
2022-08-19T14:47:10.062Z,6.65
2022-08-19T14:49:48.435Z,6.10
2022-08-19T14:52:22.216Z,4.18
2022-08-19T14:54:55.833Z,4.28
2022-08-19T14:57:29.320Z,4.50
2022-08-19T15:00:02.991Z,4.22
2022-08-19T15:02:36.374Z,3.55
2022-08-19T15:05:11.987Z,3.65
2022-08-19T15:07:45.870Z,4.88
2022-08-19T15:10:19.925Z,5.45
2022-08-19T15:12:55.669Z,5.38
2022-08-19T15:15:29.299Z,4.65
2022-08-19T15:18:03.623Z,4.22
2022-08-19T15:20:39.231Z,4.00
2022-08-19T15:23:16.395Z,4.38
2022-08-19T15:25:56.545Z,4.00
2022-08-19T15:28:31.159Z,3.95
2022-08-19T15:31:06.067Z,4.22
2022-08-19T15:33:41.466Z,5.00
2022-08-19T15:36:18.863Z,4.30
2022-08-19T15:38:53.307Z,4.38
2022-08-19T15:41:32.462Z,4.38
2022-08-19T15:44:16.434Z,5.78
2022-08-19T15:46:50.812Z,4.70
2022-08-19T15:49:24.325Z,4.47
2022-08-19T15:52:00.275Z,4.30
2022-08-19T15:54:33.970Z,6.03
2022-08-19T15:57:39.616Z,4.90
2022-08-19T16:00:31.061Z,5.65
2022-08-19T16:03:22.177Z,3.75
2022-08-19T16:06:13.625Z,4.70
2022-08-19T16:08:50.416Z,5.05
2022-08-19T16:11:29.468Z,7.97
2022-08-19T16:14:04.349Z,3.90
2022-08-19T16:16:39.555Z,4.10
2022-08-19T16:19:15.739Z,3.55
2022-08-19T16:21:52.786Z,5.05
2022-08-19T16:24:29.284Z,4.03
2022-08-19T16:27:03.341Z,5.38
2022-08-19T16:29:39.315Z,4.00
2022-08-19T16:32:14.156Z,4.32
2022-08-19T16:34:48.858Z,4.18
2022-08-19T16:37:23.309Z,5.22
2022-08-19T16:39:58.522Z,3.63
2022-08-19T16:42:32.107Z,6.30
2022-08-19T16:45:08.981Z,4.30
2022-08-19T16:47:42.491Z,5.53
2022-08-19T16:50:21.989Z,3.25
2022-08-19T16:52:58.940Z,4.95
2022-08-19T16:55:34.056Z,4.13
2022-08-19T16:58:07.513Z,3.97
2022-08-19T17:00:41.177Z,5.18
2022-08-19T17:03:15.370Z,4.40
2022-08-19T17:05:52.461Z,3.70
2022-08-19T17:08:28.878Z,5.93
2022-08-19T17:11:17.645Z,4.63
2022-08-19T17:13:53.368Z,4.53
2022-08-19T17:16:32.109Z,4.03
2022-08-19T17:19:09.026Z,4.50
2022-08-19T17:21:42.432Z,5.43
2022-08-19T17:24:16.792Z,4.88
2022-08-19T17:26:51.748Z,5.57
2022-08-19T17:29:25.775Z,5.88
2022-08-19T17:31:59.713Z,6.68
2022-08-19T17:34:33.593Z,5.10
2022-08-19T17:37:07.349Z,5.50
2022-08-19T17:39:40.798Z,6.18
2022-08-19T17:42:15.777Z,7.43
2022-08-19T17:44:50.719Z,6.40
2022-08-19T17:47:24.930Z,5.05
2022-08-19T17:49:58.529Z,5.43
2022-08-19T17:52:33.112Z,5.38
2022-08-19T17:55:12.947Z,6.00
2022-08-19T17:57:48.068Z,6.07
2022-08-19T18:00:23.558Z,6.70
2022-08-19T18:03:03.045Z,5.40
2022-08-19T18:05:43.910Z,6.75
2022-08-19T18:08:17.449Z,6.55
2022-08-19T18:10:51.163Z,6.55
2022-08-19T18:13:26.113Z,6.10
2022-08-19T18:15:59.923Z,6.78
2022-08-19T18:18:33.549Z,7.10
2022-08-19T18:21:09.163Z,6.20
2022-08-19T18:23:45.837Z,8.00
2022-08-19T18:26:20.244Z,7.00
2022-08-19T18:28:55.310Z,7.68
2022-08-19T18:31:29.137Z,6.53
2022-08-19T18:34:03.329Z,7.13
2022-08-19T18:36:53.086Z,5.43
2022-08-19T18:39:45.336Z,5.20
2022-08-19T18:42:37.342Z,6.68
2022-08-19T18:45:33.527Z,6.68
2022-08-19T18:48:27.560Z,6.22
2022-08-19T18:51:03.041Z,5.43
2022-08-19T18:53:41.481Z,4.63
2022-08-19T18:56:19.691Z,6.00
2022-08-19T18:58:53.518Z,6.25
2022-08-19T19:01:33.212Z,6.20
2022-08-19T19:04:11.586Z,4.47
2022-08-19T19:06:45.682Z,4.63
2022-08-19T19:09:23.822Z,5.53
2022-08-19T19:12:00.704Z,7.03
2022-08-19T19:14:49.039Z,8.23
2022-08-19T19:17:27.347Z,6.13
2022-08-19T19:20:00.986Z,5.75
2022-08-19T19:22:34.390Z,7.10
2022-08-19T19:25:10.309Z,6.53
2022-08-19T19:27:43.846Z,8.30
2022-08-19T19:30:17.746Z,7.28
2022-08-19T19:32:54.421Z,9.48
2022-08-19T19:35:31.270Z,6.97
2022-08-19T19:38:04.879Z,5.97
2022-08-19T19:40:38.396Z,6.20
2022-08-19T19:43:12.873Z,7.15
2022-08-19T19:45:48.288Z,6.82
2022-08-19T19:48:25.101Z,7.55
2022-08-19T19:51:00.939Z,7.07
2022-08-19T19:53:35.503Z,6.85
2022-08-19T19:56:09.895Z,6.22
2022-08-19T19:58:43.461Z,6.50
2022-08-19T20:01:21.744Z,7.45
2022-08-19T20:04:01.371Z,6.60
2022-08-19T20:06:34.803Z,6.07
2022-08-19T20:09:19.469Z,6.22
2022-08-19T20:11:57.577Z,5.28
2022-08-19T20:14:36.762Z,4.38
2022-08-19T20:17:10.282Z,4.45
2022-08-19T20:19:45.151Z,4.18
2022-08-19T20:22:19.228Z,3.67
2022-08-19T20:24:53.791Z,3.60
2022-08-19T20:27:27.210Z,3.67
2022-08-19T20:30:05.899Z,3.17
2022-08-19T20:32:39.544Z,3.90
2022-08-19T20:35:16.665Z,3.25
2022-08-19T20:37:54.925Z,2.85
2022-08-19T20:40:39.350Z,3.80
2022-08-19T20:43:15.269Z,3.33
2022-08-19T20:45:48.739Z,4.03
2022-08-19T20:48:22.346Z,4.10
2022-08-19T20:50:57.443Z,3.63
2022-08-19T20:53:31.735Z,3.55
2022-08-19T20:56:06.695Z,4.05
2022-08-19T20:58:41.294Z,3.70
2022-08-19T21:01:15.336Z,6.15
2022-08-19T21:03:48.821Z,4.80
2022-08-19T21:06:24.195Z,3.50
2022-08-19T21:08:57.978Z,3.50
2022-08-19T21:11:32.327Z,2.95
2022-08-19T21:14:06.020Z,3.58
2022-08-19T21:16:39.575Z,3.40
2022-08-19T21:19:13.130Z,4.28
2022-08-19T21:21:47.917Z,3.72
2022-08-19T21:24:26.345Z,4.97
2022-08-19T21:27:05.370Z,3.70
2022-08-19T21:29:40.533Z,3.00
2022-08-19T21:32:14.541Z,4.80
2022-08-19T21:34:48.227Z,3.50
2022-08-19T21:37:25.865Z,4.22
2022-08-19T21:39:59.747Z,4.63
2022-08-19T21:42:33.576Z,4.20
2022-08-19T21:45:08.450Z,4.60
2022-08-19T21:47:41.959Z,4.90
2022-08-19T21:50:15.692Z,4.18
2022-08-19T21:52:50.618Z,4.30
2022-08-19T21:55:24.727Z,4.78
2022-08-19T21:58:00.187Z,3.72
2022-08-19T22:00:35.265Z,4.93
2022-08-19T22:03:13.537Z,4.78
2022-08-19T22:05:47.777Z,3.90
2022-08-19T22:08:22.532Z,5.13
2022-08-19T22:10:56.311Z,4.45
2022-08-19T22:13:32.515Z,5.28
2022-08-19T22:16:08.472Z,5.28
2022-08-19T22:18:42.099Z,5.18
2022-08-19T22:21:16.261Z,4.28
2022-08-19T22:24:05.480Z,8.80
2022-08-19T22:26:39.011Z,5.68
2022-08-19T22:29:13.307Z,5.22
2022-08-19T22:31:54.281Z,4.75
2022-08-19T22:34:31.825Z,4.70
2022-08-19T22:37:06.529Z,4.28
2022-08-19T22:39:41.523Z,3.58
2022-08-19T22:42:18.501Z,4.05
2022-08-19T22:44:52.457Z,3.85
2022-08-19T22:47:29.458Z,4.15
2022-08-19T22:50:07.843Z,3.63
2022-08-19T22:52:51.947Z,4.25
2022-08-19T22:55:34.132Z,5.43
2022-08-19T22:58:09.973Z,5.38
2022-08-19T23:00:43.922Z,5.65
2022-08-19T23:03:17.594Z,6.72
2022-08-19T23:05:51.418Z,6.13
2022-08-19T23:08:26.216Z,6.10
2022-08-19T23:11:06.216Z,8.00
2022-08-19T23:13:43.395Z,7.40
2022-08-19T23:16:16.971Z,8.55
2022-08-19T23:18:50.801Z,8.30
2022-08-19T23:21:29.891Z,8.88
2022-08-19T23:24:03.485Z,8.98
2022-08-19T23:26:38.967Z,7.47
2022-08-19T23:29:34.975Z,9.05
2022-08-19T23:32:08.929Z,8.43
2022-08-19T23:34:42.378Z,9.40
2022-08-19T23:37:16.055Z,7.47
2022-08-19T23:39:49.564Z,7.53
2022-08-19T23:42:26.044Z,8.75
2022-08-19T23:45:03.785Z,8.70
2022-08-19T23:47:37.379Z,7.70
2022-08-19T23:50:15.542Z,9.65
2022-08-19T23:52:53.305Z,8.00
2022-08-19T23:55:30.563Z,9.68
2022-08-19T23:58:08.074Z,9.18
